Time;durP1;ratioP1;P1;durP2;ratioP2;P2;SDS_P1;SDS_P2;PMS_P1;PMS_P2;Temp;Humidity;BMP_temperature;BMP_pressure;BME280_temperature;BME280_humidity;BME280_pressure;Samples;Min_cycle;Max_cycle;Signal;HPM_P1;HPM_P2
2022/07/31 00:00:39;;;;;;;5.88;4.95;;;;;;;24.57;46.02;101601.19;5095830;28;20044;-75
2022/07/31 00:03:07;;;;;;;11.45;5.50;;;;;;;24.55;46.31;101597.78;5095792;28;20051;-75
2022/07/31 00:05:34;;;;;;;6.05;5.30;;;;;;;24.52;46.48;101589.88;5096260;28;20085;-74
2022/07/31 00:08:07;;;;;;;6.05;4.97;;;;;;;24.49;46.31;101595.72;5094176;28;20399;-75
2022/07/31 00:10:35;;;;;;;5.85;5.25;;;;;;;24.47;46.51;101596.94;5094462;28;20043;-76
2022/07/31 00:13:02;;;;;;;8.88;5.50;;;;;;;24.44;46.66;101592.66;5095566;28;20032;-76
2022/07/31 00:15:29;;;;;;;6.53;5.82;;;;;;;24.43;46.52;101598.34;5093991;28;20044;-76
2022/07/31 00:17:56;;;;;;;6.50;5.25;;;;;;;24.39;46.51;101589.59;5077470;28;20043;-76
2022/07/31 00:20:23;;;;;;;7.70;5.72;;;;;;;24.35;46.55;101591.88;5094143;28;20412;-77
2022/07/31 00:22:56;;;;;;;6.95;5.78;;;;;;;24.32;46.88;101581.25;5095486;28;20466;-76
2022/07/31 00:25:22;;;;;;;6.97;6.10;;;;;;;24.30;46.40;101587.94;5076962;28;20143;-77
2022/07/31 00:27:49;;;;;;;8.20;6.15;;;;;;;24.30;46.46;101588.81;5095334;28;20039;-76
2022/07/31 00:30:17;;;;;;;6.82;6.07;;;;;;;24.30;46.79;101579.72;5094007;28;20085;-76
2022/07/31 00:32:48;;;;;;;6.82;5.95;;;;;;;24.29;47.05;101591.72;5093689;28;20067;-75
2022/07/31 00:35:17;;;;;;;7.60;6.75;;;;;;;24.29;47.08;101594.47;5093205;28;20058;-76
2022/07/31 00:37:48;;;;;;;7.45;6.53;;;;;;;24.24;47.17;101599.63;5095099;28;20044;-76
2022/07/31 00:40:20;;;;;;;10.55;8.43;;;;;;;24.18;47.17;101592.97;5093667;28;20095;-75
2022/07/31 00:42:51;;;;;;;14.38;10.15;;;;;;;24.06;47.18;101591.66;5094874;28;20047;-76
2022/07/31 00:45:18;;;;;;;11.98;10.15;;;;;;;23.96;47.50;101596.50;5093280;28;20486;-75
2022/07/31 00:47:51;;;;;;;14.48;11.38;;;;;;;23.92;47.82;101590.53;5094902;28;20044;-75
2022/07/31 00:50:21;;;;;;;12.70;10.77;;;;;;;23.85;47.70;101583.19;5093568;28;20051;-72
2022/07/31 00:52:52;;;;;;;17.05;11.77;;;;;;;23.82;48.07;101583.53;5076518;28;20042;-76
2022/07/31 00:55:19;;;;;;;12.93;11.27;;;;;;;23.83;48.25;101588.84;5092715;28;20397;-75
2022/07/31 00:57:46;;;;;;;13.85;11.23;;;;;;;23.86;47.91;101580.25;5093281;28;20040;-74
2022/07/31 01:00:13;;;;;;;13.07;11.10;;;;;;;23.86;48.27;101591.22;5094260;28;20052;-75
2022/07/31 01:02:40;;;;;;;12.55;10.98;;;;;;;23.86;48.08;101580.25;5094303;28;20114;-74
2022/07/31 01:05:17;;;;;;;13.48;12.07;;;;;;;23.86;48.28;101580.25;5094384;28;20127;-75
2022/07/31 01:07:45;;;;;;;12.60;11.27;;;;;;;23.88;48.16;101588.31;5075631;28;20498;-74
2022/07/31 01:10:18;;;;;;;12.73;11.32;;;;;;;23.89;48.37;101579.03;5092507;28;20119;-75
2022/07/31 01:15:21;;;;;;;16.00;11.52;;;;;;;23.91;48.49;101572.34;5094076;27;20102;-75
2022/07/31 01:17:49;;;;;;;12.55;11.20;;;;;;;23.92;48.50;101573.19;5075865;28;20036;-74
2022/07/31 01:20:17;;;;;;;13.02;10.45;;;;;;;23.93;48.61;101566.69;5092458;28;20058;-74
2022/07/31 01:23:16;;;;;;;13.07;10.68;;;;;;;23.89;48.43;101546.97;5092567;28;20051;-75
2022/07/31 01:26:44;;;;;;;14.25;10.15;;;;;;;23.84;48.36;101551.28;5093955;28;20477;-73
2022/07/31 01:29:32;;;;;;;12.90;10.55;;;;;;;23.81;48.43;101547.03;5072420;28;20044;-75
2022/07/31 01:32:09;;;;;;;11.18;10.10;;;;;;;23.77;48.32;101542.91;5072069;28;20089;-74
2022/07/31 01:34:46;;;;;;;14.27;10.73;;;;;;;23.75;48.38;101550.44;5072061;28;20568;-73
2022/07/31 01:37:20;;;;;;;14.77;10.77;;;;;;;23.72;48.51;101548.06;5076337;28;20178;-74
2022/07/31 01:39:58;;;;;;;12.13;10.85;;;;;;;23.70;48.33;101550.97;5092280;28;20130;-74
2022/07/31 01:42:26;;;;;;;12.73;10.35;;;;;;;23.67;48.59;101545.84;5092042;28;20044;-74
2022/07/31 01:44:56;;;;;;;11.68;10.45;;;;;;;23.63;48.49;101547.22;5093585;27;20138;-74
2022/07/31 01:47:26;;;;;;;14.70;11.25;;;;;;;23.61;48.91;101532.84;5091981;28;20070;-75
2022/07/31 01:49:56;;;;;;;11.50;10.40;;;;;;;23.59;48.93;101537.66;5091988;28;20097;-74
2022/07/31 01:52:27;;;;;;;11.52;10.43;;;;;;;23.59;48.92;101542.28;5091924;28;20528;-74
2022/07/31 01:54:57;;;;;;;12.88;10.88;;;;;;;23.57;49.06;101536.13;5091812;28;20048;-74
2022/07/31 01:57:26;;;;;;;12.57;10.60;;;;;;;23.55;48.98;101538.19;5074868;28;20434;-75
2022/07/31 01:59:58;;;;;;;11.60;9.68;;;;;;;23.53;49.36;101532.00;5091713;28;20139;-74
2022/07/31 02:02:51;;;;;;;11.95;10.18;;;;;;;23.46;49.11;101524.47;5091687;28;20498;-73
2022/07/31 02:05:21;;;;;;;12.93;11.30;;;;;;;23.37;49.37;101525.53;5093091;28;20040;-74
2022/07/31 02:07:51;;;;;;;12.82;11.18;;;;;;;23.33;49.56;101537.03;5091450;28;20123;-73
2022/07/31 02:10:24;;;;;;;;;;;;;;;23.28;49.37;101533.97;5092231;28;20554;-73
2022/07/31 02:12:53;;;;;;;13.38;12.07;;;;;;;23.30;49.29;101540.13;5074610;28;19927;-74
2022/07/31 02:15:20;;;;;;;14.38;12.20;;;;;;;23.25;49.64;101540.66;5091386;28;20504;-72
2022/07/31 02:17:48;;;;;;;12.55;11.35;;;;;;;23.24;49.91;101551.78;5075242;28;20449;-72
2022/07/31 02:20:22;;;;;;;15.95;12.70;;;;;;;23.23;49.75;101548.19;5091861;28;20509;-72
2022/07/31 02:22:54;;;;;;;14.82;12.60;;;;;;;23.18;49.87;101552.47;5075039;28;20051;-72
2022/07/31 02:25:21;;;;;;;13.80;12.10;;;;;;;23.16;50.24;101551.78;5091468;28;20126;-72
2022/07/31 02:27:49;;;;;;;14.65;11.85;;;;;;;23.12;50.12;101549.41;5091275;28;20067;-73
2022/07/31 02:30:26;;;;;;;16.83;12.82;;;;;;;23.11;50.15;101552.31;5092274;28;20040;-74
2022/07/31 02:33:12;;;;;;;13.85;12.40;;;;;;;23.11;50.50;101550.44;5107975;28;20501;-74
2022/07/31 02:35:41;;;;;;;13.07;11.68;;;;;;;23.11;50.63;101549.56;5074515;28;20052;-74
2022/07/31 02:38:12;;;;;;;13.80;12.40;;;;;;;23.10;50.64;101554.19;5090846;28;20499;-74
2022/07/31 02:40:51;;;;;;;13.93;12.20;;;;;;;23.09;50.53;101544.28;5090557;28;20511;-76
2022/07/31 02:43:20;;;;;;;14.40;12.93;;;;;;;23.11;50.51;101544.94;5091706;28;20032;-77
2022/07/31 02:45:47;;;;;;;13.40;12.13;;;;;;;23.14;50.38;101535.53;5091011;28;20101;-74
2022/07/31 02:48:14;;;;;;;13.70;12.40;;;;;;;23.15;50.56;101539.97;5091237;28;20040;-74
2022/07/31 02:50:46;;;;;;;13.43;11.77;;;;;;;23.15;50.38;101550.94;5090343;28;20078;-75
2022/07/31 02:53:17;;;;;;;16.98;12.38;;;;;;;23.15;50.65;101553.69;5091622;28;20074;-75
2022/07/31 02:55:45;;;;;;;14.60;13.20;;;;;;;23.17;50.81;101561.72;5075371;28;20504;-77
2022/07/31 02:58:13;;;;;;;16.90;13.23;;;;;;;23.16;50.65;101558.13;5092050;28;20050;-77
2022/07/31 03:00:39;;;;;;;15.18;12.43;;;;;;;23.14;50.99;101561.03;5091966;28;20040;-76
2022/07/31 03:03:09;;;;;;;13.43;12.05;;;;;;;23.13;50.73;101555.75;5091689;28;20072;-75
2022/07/31 03:05:37;;;;;;;14.90;13.20;;;;;;;23.11;50.74;101544.94;5092117;28;20036;-75
2022/07/31 03:08:03;;;;;;;14.98;13.23;;;;;;;23.10;50.93;101536.91;5093341;28;20543;-75
2022/07/31 03:10:34;;;;;;;15.02;13.13;;;;;;;23.09;50.99;101530.56;5091971;28;20135;-75
2022/07/31 03:13:06;;;;;;;13.60;12.30;;;;;;;23.04;51.04;101535.72;5093259;28;20418;-76
2022/07/31 03:15:33;;;;;;;14.25;12.75;;;;;;;23.03;51.03;101539.44;5091469;28;20509;-75
2022/07/31 03:18:01;;;;;;;17.23;13.63;;;;;;;23.01;51.02;101530.56;5091948;28;20493;-75
2022/07/31 03:20:40;;;;;;;14.02;12.55;;;;;;;23.01;51.13;101535.19;5091744;28;20075;-75
2022/07/31 03:23:12;;;;;;;14.18;12.68;;;;;;;23.00;51.15;101534.31;5091524;28;20048;-75
2022/07/31 03:25:50;;;;;;;14.77;12.65;;;;;;;23.00;51.13;101533.47;5091661;28;20493;-74
2022/07/31 03:28:18;;;;;;;14.95;12.73;;;;;;;22.98;51.14;101522.69;5092867;28;20094;-76
2022/07/31 03:30:52;;;;;;;15.63;13.23;;;;;;;22.97;51.07;101525.59;5091719;28;20089;-75
2022/07/31 03:33:26;;;;;;;14.07;12.25;;;;;;;22.95;51.12;101524.91;5095732;28;20040;-75
2022/07/31 03:35:54;;;;;;;16.63;12.75;;;;;;;22.92;51.14;101528.00;5079229;28;20081;-75
2022/07/31 03:38:21;;;;;;;14.63;12.85;;;;;;;22.88;51.20;101526.63;5079172;28;20089;-75
2022/07/31 03:41:10;;;;;;;17.33;12.77;;;;;;;22.85;51.30;101530.56;5082123;28;20043;-76
2022/07/31 03:43:43;;;;;;;14.00;12.60;;;;;;;22.81;51.05;101524.59;5095650;28;20398;-76
2022/07/31 03:46:17;;;;;;;14.38;12.02;;;;;;;22.76;51.52;101532.44;5095431;28;20131;-75
2022/07/31 03:48:45;;;;;;;17.02;12.32;;;;;;;22.73;51.40;101541.00;5095692;28;20052;-73
2022/07/31 03:51:13;;;;;;;14.52;13.07;;;;;;;22.68;51.46;101524.22;5095694;28;20108;-73
2022/07/31 03:53:45;;;;;;;14.30;12.80;;;;;;;22.63;51.63;101528.50;5096512;28;20501;-72
2022/07/31 03:56:31;;;;;;;13.48;11.90;;;;;;;22.64;51.55;101532.94;5095785;28;20081;-75
2022/07/31 03:58:58;;;;;;;19.27;13.45;;;;;;;22.62;51.76;101530.38;5095570;28;20031;-75
2022/07/31 04:01:27;;;;;;;18.73;12.95;;;;;;;22.60;51.58;101529.69;5095060;28;20040;-74
2022/07/31 04:04:22;;;;;;;14.73;13.20;;;;;;;22.55;51.81;101523.03;5095165;28;20064;-75
2022/07/31 04:06:58;;;;;;;13.35;11.95;;;;;;;22.44;51.91;101524.22;5095222;28;20040;-74
2022/07/31 04:09:25;;;;;;;16.05;13.52;;;;;;;22.28;51.96;101532.38;5095277;28;20043;-75
2022/07/31 04:11:52;;;;;;;14.73;13.25;;;;;;;22.16;52.38;101534.56;5094998;28;20134;-74
2022/07/31 04:14:23;;;;;;;14.20;12.70;;;;;;;22.11;52.49;101531.50;5078406;28;20398;-74
2022/07/31 04:16:50;;;;;;;13.93;12.50;;;;;;;22.09;52.61;101531.66;5094953;28;20036;-74
2022/07/31 04:19:17;;;;;;;14.18;12.20;;;;;;;22.10;52.52;101536.09;5094794;28;20044;-73
2022/07/31 04:21:43;;;;;;;15.23;12.93;;;;;;;22.11;52.87;101537.81;5094579;28;20061;-73
2022/07/31 04:24:15;;;;;;;14.90;13.30;;;;;;;22.14;52.96;101540.22;5095053;28;20044;-74
2022/07/31 04:26:54;;;;;;;15.60;12.63;;;;;;;22.16;52.94;101538.16;5094796;28;20047;-75
2022/07/31 04:29:27;;;;;;;13.98;12.52;;;;;;;22.16;52.89;101540.03;5094671;28;20573;-74
2022/07/31 04:31:54;;;;;;;17.88;12.00;;;;;;;22.16;52.84;101540.03;5095684;28;20489;-74
2022/07/31 04:34:31;;;;;;;15.45;12.15;;;;;;;22.19;53.17;101539.72;5078626;28;20433;-74
2022/07/31 04:36:58;;;;;;;14.13;12.70;;;;;;;22.23;52.96;101535.63;5094472;28;20050;-74
2022/07/31 04:39:25;;;;;;;17.42;12.55;;;;;;;22.25;52.89;101539.03;5094255;28;20058;-74
2022/07/31 04:41:51;;;;;;;16.65;12.55;;;;;;;22.24;52.81;101541.94;5094326;28;20047;-74
2022/07/31 04:44:24;;;;;;;14.77;11.85;;;;;;;22.22;53.14;101541.25;5093518;28;20097;-74
2022/07/31 04:47:00;;;;;;;14.30;12.80;;;;;;;22.20;52.95;101536.81;5077965;28;20127;-74
2022/07/31 04:49:31;;;;;;;15.82;13.98;;;;;;;22.19;53.07;101535.09;5094142;28;20135;-74
2022/07/31 04:52:00;;;;;;;13.75;12.32;;;;;;;22.21;53.52;101540.41;5092744;28;20039;-73
2022/07/31 04:54:31;;;;;;;13.77;12.38;;;;;;;22.25;53.48;101544.50;5093583;28;20043;-73
2022/07/31 04:56:58;;;;;;;17.75;13.00;;;;;;;22.28;53.19;101544.19;5093734;28;20036;-72
2022/07/31 04:59:25;;;;;;;16.48;13.50;;;;;;;22.32;53.27;101542.00;5093675;28;20078;-74
2022/07/31 05:02:12;;;;;;;15.20;12.43;;;;;;;22.35;53.39;101542.50;5093189;28;20043;-75
2022/07/31 05:04:39;;;;;;;16.58;13.02;;;;;;;22.36;53.32;101544.22;5093488;28;20043;-72
2022/07/31 05:07:05;;;;;;;15.27;13.27;;;;;;;22.35;53.43;101536.19;5094797;28;20122;-74
2022/07/31 05:09:34;;;;;;;14.65;13.00;;;;;;;22.36;53.91;101540.63;5076732;28;20131;-74
2022/07/31 05:12:03;;;;;;;14.73;12.75;;;;;;;22.36;53.87;101535.16;5093891;28;20094;-74
2022/07/31 05:14:33;;;;;;;17.63;12.27;;;;;;;22.37;53.83;101532.25;5093311;28;20405;-74
2022/07/31 05:17:00;;;;;;;14.23;11.70;;;;;;;22.38;53.58;101533.97;5092928;28;20078;-74
2022/07/31 05:19:41;;;;;;;13.07;11.68;;;;;;;22.41;53.84;101528.16;5078594;28;20047;-75
2022/07/31 05:22:20;;;;;;;17.88;11.93;;;;;;;22.45;53.86;101526.78;5092192;28;20409;-73
2022/07/31 05:25:33;;;;;;;12.65;11.38;;;;;;;22.46;54.02;101531.22;5079379;28;20048;-72
2022/07/31 05:28:00;;;;;;;13.00;11.45;;;;;;;22.51;53.80;101538.94;5093013;28;20036;-73
2022/07/31 05:30:27;;;;;;;13.48;12.07;;;;;;;22.51;53.71;101538.94;5092354;28;20506;-73
2022/07/31 05:32:57;;;;;;;14.65;11.60;;;;;;;22.49;53.97;101535.50;5076036;28;20068;-74
2022/07/31 05:35:24;;;;;;;11.85;10.48;;;;;;;22.50;54.01;101534.47;5092598;28;20121;-73
2022/07/31 05:37:51;;;;;;;13.00;11.35;;;;;;;22.50;54.09;101532.59;5075808;28;20422;-73
2022/07/31 05:40:26;;;;;;;16.20;11.23;;;;;;;22.52;54.11;101525.06;5091988;28;20028;-74
2022/07/31 05:43:32;;;;;;;14.32;10.70;;;;;;;22.61;53.96;101522.34;5084429;28;20344;-73
2022/07/31 05:46:16;;;;;;;13.68;11.18;;;;;;;22.62;54.10;101511.22;5092029;28;20578;-75
2022/07/31 05:48:44;;;;;;;12.50;11.20;;;;;;;22.61;54.29;101520.47;5093100;28;20119;-74
2022/07/31 05:51:12;;;;;;;13.18;11.38;;;;;;;22.61;54.63;101517.72;5093628;28;20043;-74
2022/07/31 05:53:43;;;;;;;14.30;11.02;;;;;;;22.66;54.94;101514.47;5093155;28;20139;-74
2022/07/31 05:56:31;;;;;;;17.65;11.43;;;;;;;22.72;54.73;101522.00;5072026;28;20040;-74
2022/07/31 05:58:59;;;;;;;12.35;10.45;;;;;;;22.76;55.05;101531.56;5093004;28;20036;-80
2022/07/31 06:01:26;;;;;;;11.95;10.23;;;;;;;22.78;55.02;101535.84;5092825;28;20386;-80
2022/07/31 06:03:56;;;;;;;13.32;10.82;;;;;;;22.81;55.02;101532.81;5076086;28;20071;-76
2022/07/31 06:06:30;;;;;;;14.10;10.43;;;;;;;22.86;54.87;101531.44;5092662;28;20051;-76
2022/07/31 06:08:58;;;;;;;11.43;10.27;;;;;;;22.85;54.76;101526.97;5076045;28;20052;-76
2022/07/31 06:11:33;;;;;;;11.77;10.45;;;;;;;22.85;55.17;101537.94;5092721;28;20048;-75
2022/07/31 06:14:02;;;;;;;12.85;10.77;;;;;;;22.88;55.21;101545.81;5092890;28;20093;-75
2022/07/31 06:16:48;;;;;;;11.43;9.73;;;;;;;22.89;55.08;101537.41;5092538;28;20055;-76
2022/07/31 06:19:16;;;;;;;10.55;8.98;;;;;;;22.86;55.31;101534.16;5092568;28;20058;-76
2022/07/31 06:21:42;;;;;;;9.90;8.75;;;;;;;22.86;55.33;101534.16;5092491;28;20047;-75
2022/07/31 06:24:09;;;;;;;10.90;9.52;;;;;;;22.84;55.37;101548.03;5093937;28;20555;-75
2022/07/31 06:26:41;;;;;;;11.80;8.85;;;;;;;22.88;55.48;101549.41;5092574;28;20445;-78
2022/07/31 06:29:08;;;;;;;11.30;9.20;;;;;;;22.91;55.72;101546.31;5075681;28;20489;-77
2022/07/31 06:31:35;;;;;;;9.93;8.25;;;;;;;22.91;55.34;101550.94;5092947;28;20071;-82
2022/07/31 06:34:52;;;;;;;10.73;9.02;;;;;;;22.89;55.64;101539.31;5094562;28;20050;-81
2022/07/31 06:37:18;;;;;;;;;;;;;;;22.90;55.25;101543.75;5095857;28;20040;-81
2022/07/31 06:39:47;;;;;;;10.73;8.52;;;;;;;22.95;55.17;101544.09;5058406;28;20328;-82
2022/07/31 06:42:40;;;;;;;8.18;7.25;;;;;;;22.98;55.41;101536.38;5074533;28;20063;-81
2022/07/31 06:45:13;;;;;;;9.98;8.45;;;;;;;23.01;55.81;101532.44;5073739;28;20055;-81
2022/07/31 06:48:23;;;;;;;9.82;7.68;;;;;;;23.06;55.57;101533.66;5045029;28;20049;-82
2022/07/31 06:51:00;;;;;;;9.38;7.63;;;;;;;23.11;55.77;101530.41;5072876;28;20271;-82
2022/07/31 06:53:49;;;;;;;9.27;7.93;;;;;;;23.12;55.26;101535.72;5073569;28;20043;-82
2022/07/31 06:56:15;;;;;;;12.07;7.93;;;;;;;23.19;55.82;101530.38;5073302;28;20044;-82
2022/07/31 06:58:42;;;;;;;8.02;7.15;;;;;;;23.25;55.65;101526.94;5083849;27;20060;-82
2022/07/31 07:01:09;;;;;;;12.10;6.93;;;;;;;23.29;55.66;101522.81;5093187;28;20114;-82
2022/07/31 07:03:40;;;;;;;10.07;7.72;;;;;;;23.33;55.84;101515.97;5092834;28;20109;-82
2022/07/31 07:06:07;;;;;;;11.05;7.60;;;;;;;23.41;55.87;101518.66;5076434;28;20044;-81
2022/07/31 07:08:34;;;;;;;8.10;6.10;;;;;;;23.49;55.84;101522.41;5095007;28;20055;-82
2022/07/31 07:11:00;;;;;;;9.05;6.35;;;;;;;23.53;55.97;101524.63;5093358;28;20494;-82
2022/07/31 07:13:36;;;;;;;8.52;6.05;;;;;;;23.60;56.07;101525.66;5094410;28;20055;-82
2022/07/31 07:16:14;;;;;;;5.70;5.10;;;;;;;23.64;55.72;101520.66;5092579;28;20410;-81
2022/07/31 07:18:42;;;;;;;7.53;5.40;;;;;;;23.63;55.56;101532.66;5091694;28;20076;-81
2022/07/31 07:21:10;;;;;;;7.45;5.18;;;;;;;23.62;55.15;101531.81;5074790;28;20425;-81
2022/07/31 07:23:38;;;;;;;8.25;5.45;;;;;;;23.60;55.36;101528.41;5092430;28;20048;-82
2022/07/31 07:26:25;;;;;;;7.28;4.88;;;;;;;23.61;55.51;101529.25;5091335;28;20047;-82
2022/07/31 07:28:52;;;;;;;6.35;5.13;;;;;;;23.63;55.25;101529.94;5091582;27;20513;-73
2022/07/31 07:31:19;;;;;;;8.68;5.90;;;;;;;23.63;55.33;101516.22;5091330;28;20494;-73
2022/07/31 07:33:50;;;;;;;8.73;6.15;;;;;;;23.61;55.50;101521.88;5090760;28;20040;-71
2022/07/31 07:36:20;;;;;;;9.23;6.57;;;;;;;23.59;55.32;101517.59;5089950;28;20047;-70
2022/07/31 07:39:01;;;;;;;7.47;5.80;;;;;;;23.62;55.42;101509.03;5070579;28;20043;-70
2022/07/31 07:41:28;;;;;;;7.97;5.80;;;;;;;23.67;55.63;101510.19;5070958;28;20083;-70
2022/07/31 07:43:59;;;;;;;10.25;6.68;;;;;;;23.75;55.58;101512.03;5071334;28;20438;-70
2022/07/31 07:46:27;;;;;;;9.27;6.82;;;;;;;23.80;55.78;101509.66;5069453;28;20094;-69
2022/07/31 07:48:56;;;;;;;10.43;7.03;;;;;;;23.85;55.65;101509.97;5069660;28;20044;-70
2022/07/31 07:51:37;;;;;;;11.45;6.93;;;;;;;23.90;55.61;101507.53;5054854;28;20498;-70
2022/07/31 07:54:58;;;;;;;10.32;7.65;;;;;;;24.02;55.31;101513.47;5070891;28;20458;-70
2022/07/31 07:58:04;;;;;;;12.00;7.90;;;;;;;24.09;55.28;101512.56;5069877;28;20406;-70
2022/07/31 08:01:02;;;;;;;9.98;7.47;;;;;;;24.15;55.40;101512.88;5070744;28;20037;-70
2022/07/31 08:03:34;;;;;;;10.35;7.43;;;;;;;24.21;55.43;101513.00;5069449;28;20526;-70
2022/07/31 08:06:19;;;;;;;10.48;8.43;;;;;;;24.28;55.36;101521.41;5086406;28;20090;-69
2022/07/31 08:08:46;;;;;;;10.50;7.57;;;;;;;24.31;55.12;101510.91;5070445;28;20090;-71
2022/07/31 08:11:41;;;;;;;10.23;7.40;;;;;;;24.33;55.23;101516.22;5071582;28;20063;-71
2022/07/31 08:14:18;;;;;;;9.65;7.22;;;;;;;24.40;55.18;101507.06;5070592;28;20557;-71
2022/07/31 08:17:10;;;;;;;8.63;7.43;;;;;;;24.54;54.88;101505.44;5065856;28;20048;-70
2022/07/31 08:19:39;;;;;;;9.88;6.90;;;;;;;24.61;55.05;101497.31;5082779;28;20044;-74
2022/07/31 08:22:06;;;;;;;9.05;7.60;;;;;;;24.67;54.99;101486.44;5093943;28;20070;-74
2022/07/31 08:24:33;;;;;;;9.43;6.57;;;;;;;24.74;55.04;101489.28;5093891;28;20142;-71
2022/07/31 08:29:47;;;;;;;7.82;6.35;;;;;;;24.94;54.69;101481.38;5081588;28;20127;-73
2022/07/31 08:32:16;;;;;;;10.45;6.57;;;;;;;25.09;54.63;101486.91;5092421;28;20506;-74
2022/07/31 08:35:03;;;;;;;10.27;6.20;;;;;;;25.16;54.33;101491.47;5094454;28;20035;-73
2022/07/31 08:37:29;;;;;;;6.88;6.00;;;;;;;25.23;54.34;101500.66;5093656;28;20040;-72
2022/07/31 08:40:18;;;;;;;9.65;7.07;;;;;;;25.30;54.07;101490.66;5093059;28;20051;-73
2022/07/31 08:42:55;;;;;;;8.25;5.90;;;;;;;25.29;53.94;101488.94;5093346;28;20048;-72
2022/07/31 08:45:27;;;;;;;7.53;6.30;;;;;;;25.31;53.52;101492.34;5078416;28;20044;-72
2022/07/31 08:48:18;;;;;;;8.38;6.18;;;;;;;25.38;53.77;101497.09;5094904;28;20055;-72
2022/07/31 08:50:47;;;;;;;7.65;6.05;;;;;;;25.40;53.87;101498.63;5094129;28;20098;-72
2022/07/31 08:53:45;;;;;;;7.53;5.68;;;;;;;25.48;53.66;101493.00;5058011;28;20048;-72
2022/07/31 08:56:15;;;;;;;9.57;6.30;;;;;;;25.57;53.71;101502.88;5075425;28;20542;-76
2022/07/31 08:58:42;;;;;;;7.70;6.15;;;;;;;25.64;53.59;101487.31;5080668;28;20028;-73
2022/07/31 09:01:13;;;;;;;8.57;6.55;;;;;;;25.71;53.58;101487.41;5093570;28;20051;-74
2022/07/31 09:03:42;;;;;;;6.47;5.78;;;;;;;25.79;53.77;101490.06;5073809;28;20560;-73
2022/07/31 09:06:12;;;;;;;6.10;5.50;;;;;;;25.88;53.40;101488.88;5074985;28;20040;-73
2022/07/31 09:08:40;;;;;;;8.02;5.78;;;;;;;25.92;53.30;101484.72;5093976;28;20525;-73
2022/07/31 09:11:10;;;;;;;8.55;5.90;;;;;;;25.98;53.39;101485.81;5093602;28;20039;-73
2022/07/31 09:13:54;;;;;;;8.35;6.10;;;;;;;26.04;53.21;101485.09;5093157;28;20402;-73
2022/07/31 09:16:49;;;;;;;7.72;6.35;;;;;;;26.09;52.66;101482.59;5093028;28;20036;-73
2022/07/31 09:19:23;;;;;;;6.72;5.85;;;;;;;26.07;52.70;101484.69;5093494;28;20083;-72
2022/07/31 09:22:26;;;;;;;7.88;5.63;;;;;;;26.07;52.85;101481.09;5093119;28;20050;-72
2022/07/31 09:25:14;;;;;;;10.80;5.05;;;;;;;26.07;52.76;101483.84;5077969;28;20059;-73
2022/07/31 09:27:41;;;;;;;6.55;5.80;;;;;;;26.07;52.61;101489.34;5086247;28;20047;-72
2022/07/31 09:30:09;;;;;;;8.10;5.60;;;;;;;26.05;52.41;101480.44;5093126;28;20040;-74
2022/07/31 09:33:18;;;;;;;5.93;5.20;;;;;;;26.05;52.35;101486.78;5089514;28;20434;-72
2022/07/31 09:36:04;;;;;;;5.53;4.50;;;;;;;26.09;52.44;101481.75;5094348;28;20121;-74
2022/07/31 09:38:44;;;;;;;7.88;6.00;;;;;;;26.18;52.51;101486.06;5105293;28;20042;-74
2022/07/31 09:41:50;;;;;;;5.35;4.85;;;;;;;26.25;52.50;101484.25;5095182;28;20063;-73
2022/07/31 09:44:51;;;;;;;7.45;5.05;;;;;;;26.32;52.41;101479.66;5092618;28;20101;-74
2022/07/31 09:47:26;;;;;;;5.88;4.85;;;;;;;26.34;52.23;101474.84;5093399;28;20374;-74
2022/07/31 09:49:58;;;;;;;7.32;5.65;;;;;;;26.35;52.28;101475.69;5093045;28;20129;-74
2022/07/31 09:52:27;;;;;;;5.70;4.65;;;;;;;26.38;52.39;101476.16;5093316;28;20424;-76
2022/07/31 09:55:22;;;;;;;5.78;5.15;;;;;;;26.42;52.55;101487.63;5092751;28;20040;-74
2022/07/31 09:57:57;;;;;;;6.80;5.47;;;;;;;26.48;52.37;101482.16;5093146;28;20036;-74
2022/07/31 10:00:28;;;;;;;8.07;5.47;;;;;;;26.55;52.51;101484.97;5092863;28;20052;-76
2022/07/31 10:02:56;;;;;;;6.15;5.43;;;;;;;26.62;52.42;101471.25;5092708;28;20048;-75
2022/07/31 10:05:26;;;;;;;8.80;6.68;;;;;;;26.71;52.68;101475.56;5092195;28;20048;-74
2022/07/31 10:07:56;;;;;;;6.75;5.72;;;;;;;26.77;52.38;101483.94;5092624;28;20063;-73
2022/07/31 10:10:43;;;;;;;12.68;8.90;;;;;;;26.80;52.07;101486.28;5078167;28;20139;-73
2022/07/31 10:13:23;;;;;;;10.38;8.35;;;;;;;26.84;52.30;101484.84;5092438;28;20051;-73
2022/07/31 10:15:53;;;;;;;8.23;5.35;;;;;;;26.91;52.48;101487.63;5092044;28;20051;-73
2022/07/31 10:18:44;;;;;;;5.80;5.18;;;;;;;27.00;52.40;101480.94;5093845;28;20136;-74
2022/07/31 10:21:34;;;;;;;6.90;4.63;;;;;;;27.07;52.22;101475.47;5092239;28;20044;-74
2022/07/31 10:24:10;;;;;;;6.18;5.03;;;;;;;27.14;52.06;101477.22;5092226;28;20043;-73
2022/07/31 10:26:38;;;;;;;8.52;4.90;;;;;;;27.20;51.92;101470.03;5091953;28;20040;-74
2022/07/31 10:29:26;;;;;;;4.63;4.20;;;;;;;27.23;51.90;101469.66;5092264;28;20486;-73
2022/07/31 10:31:58;;;;;;;6.40;4.95;;;;;;;27.25;51.53;101474.94;5076098;28;20047;-76
2022/07/31 10:34:27;;;;;;;6.15;4.88;;;;;;;27.29;51.68;101468.84;5091915;28;20276;-70
2022/07/31 10:37:21;;;;;;;5.68;4.78;;;;;;;27.37;51.69;101465.91;5073189;28;20514;-70
2022/07/31 10:40:30;;;;;;;5.72;4.45;;;;;;;27.46;51.37;101455.53;5073557;28;20063;-70
2022/07/31 10:43:09;;;;;;;6.97;5.25;;;;;;;27.51;50.89;101450.28;5074047;28;20054;-70
2022/07/31 10:45:49;;;;;;;5.90;4.85;;;;;;;27.52;50.83;101460.28;5093074;28;20040;-70
2022/07/31 10:48:53;;;;;;;7.70;4.63;;;;;;;27.55;51.02;101462.63;5091750;28;20044;-73
2022/07/31 10:51:48;;;;;;;5.22;3.75;;;;;;;27.64;50.67;101452.28;5092056;28;20059;-70
2022/07/31 10:54:45;;;;;;;5.65;4.30;;;;;;;27.74;50.86;101450.84;5091598;28;20139;-74
2022/07/31 10:57:33;;;;;;;5.60;4.20;;;;;;;27.76;50.09;101442.34;5091683;28;20042;-74
2022/07/31 11:00:37;;;;;;;6.22;3.85;;;;;;;27.76;50.32;101445.13;5091436;28;20043;-74
2022/07/31 11:03:21;;;;;;;9.77;4.97;;;;;;;27.77;50.16;101444.91;5091081;28;20462;-74
2022/07/31 11:06:06;;;;;;;5.55;3.40;;;;;;;27.84;50.60;101450.44;5092852;28;20051;-74
2022/07/31 11:08:53;;;;;;;6.70;4.65;;;;;;;27.96;50.24;101442.41;5091846;28;20051;-75
2022/07/31 11:11:55;;;;;;;6.53;4.22;;;;;;;28.10;50.06;101435.84;5049224;28;20098;-75
2022/07/31 11:14:39;;;;;;;5.63;3.80;;;;;;;28.16;49.67;101432.25;5082992;28;20044;-76
2022/07/31 11:17:38;;;;;;;6.72;3.72;;;;;;;28.22;49.70;101428.63;5059077;28;20110;-75
2022/07/31 11:20:30;;;;;;;;;;;;;;;28.32;49.51;101431.06;5070576;28;20044;-75
2022/07/31 11:23:03;;;;;;;5.65;3.75;;;;;;;28.34;49.22;101438.06;5078615;28;20381;-75
2022/07/31 11:25:32;;;;;;;4.13;3.40;;;;;;;28.29;49.26;101429.56;5091873;28;20032;-75
2022/07/31 11:28:31;;;;;;;5.50;3.60;;;;;;;28.19;48.97;101426.31;5090531;28;20036;-76
2022/07/31 11:31:08;;;;;;;5.50;3.22;;;;;;;28.15;48.95;101428.63;5083398;28;20056;-75
2022/07/31 11:33:46;;;;;;;5.45;3.42;;;;;;;28.11;48.63;101423.75;5089864;28;20043;-75
2022/07/31 11:36:15;;;;;;;3.83;3.20;;;;;;;28.06;48.63;101424.38;5090037;28;20565;-75
2022/07/31 11:38:48;;;;;;;5.10;3.75;;;;;;;28.04;48.50;101420.13;5092446;28;20039;-75
2022/07/31 11:41:16;;;;;;;4.03;3.28;;;;;;;28.09;48.54;101423.94;5091504;28;20043;-76
2022/07/31 11:43:56;;;;;;;4.20;3.00;;;;;;;28.12;48.51;101426.28;5092310;28;20044;-76
2022/07/31 11:46:28;;;;;;;4.85;3.33;;;;;;;28.18;48.21;101419.06;5091252;28;20040;-76
2022/07/31 11:48:55;;;;;;;3.80;2.78;;;;;;;28.25;48.55;101406.19;5092664;28;20036;-76
2022/07/31 11:51:23;;;;;;;5.35;3.20;;;;;;;28.34;48.47;101406.81;5092555;28;20068;-76
2022/07/31 11:53:55;;;;;;;5.82;3.15;;;;;;;28.40;48.48;101406.81;5094051;28;20128;-76
2022/07/31 11:56:25;;;;;;;5.80;3.15;;;;;;;28.46;48.10;101405.13;5096431;28;20044;-76
2022/07/31 11:58:56;;;;;;;3.67;3.03;;;;;;;28.50;47.64;101400.03;5095297;28;20047;-76